Time;durP1;ratioP1;P1;durP2;ratioP2;P2;SDS_P1;SDS_P2;PMS_P1;PMS_P2;Temp;Humidity;BMP_temperature;BMP_pressure;BME280_temperature;BME280_humidity;BME280_pressure;Samples;Min_cycle;Max_cycle;Signal;HPM_P1;HPM_P2
2021/07/05 00:01:55;;;;;;;4.68;4.07;;;24.80;82.20;;;;;;5100929;28;20063;-88
2021/07/05 00:04:21;;;;;;;4.47;3.63;;;24.80;82.40;;;;;;5119521;28;20047;-88
2021/07/05 00:06:46;;;;;;;4.30;3.90;;;24.80;82.60;;;;;;5119239;28;20019;-87
2021/07/05 00:09:12;;;;;;;7.55;4.35;;;24.80;82.50;;;;;;5100676;28;20024;-87
2021/07/05 00:11:39;;;;;;;7.07;4.10;;;24.90;82.50;;;;;;5100818;28;20041;-88
2021/07/05 00:14:05;;;;;;;4.72;4.22;;;24.90;82.30;;;;;;5100218;28;20114;-88
2021/07/05 00:16:30;;;;;;;5.10;3.97;;;24.90;82.10;;;;;;5118478;28;20059;-88
2021/07/05 00:18:56;;;;;;;6.40;4.13;;;25.00;82.00;;;;;;5100167;28;20514;-88
2021/07/05 00:21:22;;;;;;;5.80;4.28;;;25.00;81.80;;;;;;5100072;28;20023;-88
2021/07/05 00:23:48;;;;;;;4.18;3.63;;;24.90;81.90;;;;;;5100541;28;20497;-88
2021/07/05 00:26:13;;;;;;;4.45;3.90;;;24.90;81.90;;;;;;5100132;28;20077;-88
2021/07/05 00:28:39;;;;;;;4.30;3.70;;;24.90;81.90;;;;;;5100628;28;20028;-87
2021/07/05 00:31:05;;;;;;;4.68;4.10;;;24.90;81.90;;;;;;5099957;28;20027;-88
2021/07/05 00:33:32;;;;;;;3.88;3.47;;;24.90;81.90;;;;;;5117992;28;20035;-88
2021/07/05 00:35:58;;;;;;;6.18;3.83;;;24.80;81.80;;;;;;5099475;28;20031;-88
2021/07/05 00:38:24;;;;;;;4.72;4.22;;;24.80;82.10;;;;;;5118429;28;20023;-88
2021/07/05 00:40:49;;;;;;;4.40;4.00;;;24.70;82.10;;;;;;5100164;28;20034;-88
2021/07/05 00:43:15;;;;;;;4.97;4.43;;;24.70;82.50;;;;;;5100531;28;20066;-88
2021/07/05 00:45:41;;;;;;;5.18;4.53;;;24.60;82.50;;;;;;5101280;28;20024;-88
2021/07/05 00:48:06;;;;;;;4.65;3.65;;;24.60;82.90;;;;;;5103874;28;20394;-88
2021/07/05 00:50:32;;;;;;;7.45;3.95;;;24.60;83.10;;;;;;5103261;28;20020;-88
2021/07/05 00:53:00;;;;;;;4.35;3.95;;;24.60;82.90;;;;;;5102212;28;20128;-88
2021/07/05 00:55:27;;;;;;;6.15;4.75;;;24.70;82.70;;;;;;5120657;28;20032;-88
2021/07/05 00:57:53;;;;;;;5.32;4.25;;;24.70;82.80;;;;;;5100760;28;20034;-88
2021/07/05 01:00:23;;;;;;;4.72;4.22;;;24.60;82.80;;;;;;5099247;28;20024;-88
2021/07/05 01:02:50;;;;;;;5.07;3.90;;;24.70;82.80;;;;;;5120471;28;20099;-88
2021/07/05 01:05:16;;;;;;;5.13;4.07;;;24.70;82.60;;;;;;5114528;28;20043;-88
2021/07/05 01:07:43;;;;;;;4.80;4.03;;;24.70;82.60;;;;;;5109831;28;20116;-88
2021/07/05 01:10:10;;;;;;;4.05;3.58;;;24.60;82.80;;;;;;5112852;28;20026;-88
2021/07/05 01:12:38;;;;;;;4.88;3.88;;;24.60;82.90;;;;;;5116732;28;20038;-88
2021/07/05 01:15:05;;;;;;;5.47;3.78;;;24.60;83.10;;;;;;5111179;28;20561;-88
2021/07/05 01:17:31;;;;;;;4.75;4.25;;;24.60;83.00;;;;;;5099321;28;20031;-88
2021/07/05 01:19:56;;;;;;;4.28;3.67;;;24.70;83.10;;;;;;5099620;28;20024;-88
2021/07/05 01:22:22;;;;;;;4.80;4.28;;;24.70;83.00;;;;;;5099568;28;20023;-88
2021/07/05 01:24:48;;;;;;;4.50;4.10;;;24.70;82.70;;;;;;5101182;28;20382;-88
2021/07/05 01:27:15;;;;;;;6.05;4.60;;;24.70;82.80;;;;;;5099206;28;20119;-88
2021/07/05 01:29:41;;;;;;;5.63;4.50;;;24.60;83.10;;;;;;5117004;28;20016;-87
2021/07/05 01:32:08;;;;;;;4.43;4.00;;;24.60;83.20;;;;;;5098833;28;20130;-88
2021/07/05 01:34:35;;;;;;;5.32;4.03;;;24.60;83.30;;;;;;5098636;28;20055;-88
2021/07/05 01:37:01;;;;;;;5.13;4.38;;;24.50;83.20;;;;;;5097529;28;20126;-89
2021/07/05 01:39:26;;;;;;;4.57;4.13;;;24.50;83.20;;;;;;5098570;28;20059;-87
2021/07/05 01:41:53;;;;;;;4.65;4.18;;;24.50;83.30;;;;;;5099551;28;20077;-88
2021/07/05 01:44:18;;;;;;;10.07;3.90;;;24.60;83.40;;;;;;5098506;28;20030;-88
2021/07/05 01:46:44;;;;;;;4.40;4.00;;;24.60;83.30;;;;;;5116718;28;20103;-88
2021/07/05 01:49:10;;;;;;;4.93;4.32;;;24.60;83.30;;;;;;5116471;28;20520;-88
2021/07/05 01:51:36;;;;;;;5.07;4.60;;;24.60;83.30;;;;;;5116465;28;20019;-88
2021/07/05 01:54:03;;;;;;;4.45;3.72;;;24.50;83.30;;;;;;5117008;28;20024;-88
2021/07/05 01:56:29;;;;;;;4.47;4.07;;;24.50;83.50;;;;;;5116635;28;20027;-88
2021/07/05 01:58:54;;;;;;;5.22;4.45;;;24.40;83.70;;;;;;5116724;28;20034;-88
2021/07/05 02:01:20;;;;;;;4.22;3.83;;;24.40;84.00;;;;;;5098348;28;20070;-88
2021/07/05 02:03:46;;;;;;;5.72;4.55;;;24.50;84.10;;;;;;5098273;28;20184;-88
2021/07/05 02:06:12;;;;;;;5.05;4.15;;;24.50;84.10;;;;;;5098467;28;20024;-87
2021/07/05 02:08:38;;;;;;;4.68;4.22;;;24.40;84.00;;;;;;5098608;28;20157;-88
2021/07/05 02:11:04;;;;;;;6.55;3.72;;;24.50;84.10;;;;;;5116245;28;20533;-88
2021/07/05 02:13:33;;;;;;;6.15;4.10;;;24.50;84.00;;;;;;5098406;28;20035;-87
2021/07/05 02:16:00;;;;;;;5.32;4.82;;;24.50;84.00;;;;;;5097841;28;20050;-87
2021/07/05 02:18:28;;;;;;;5.10;4.50;;;24.50;84.00;;;;;;5098194;28;20035;-87
2021/07/05 02:20:56;;;;;;;5.53;4.97;;;24.40;84.00;;;;;;5098679;28;20030;-87
2021/07/05 02:23:22;;;;;;;5.35;4.30;;;24.40;84.20;;;;;;5098719;28;20110;-88
2021/07/05 02:25:49;;;;;;;4.72;4.30;;;24.50;84.20;;;;;;5116019;28;20447;-88
2021/07/05 02:28:17;;;;;;;4.20;3.80;;;24.50;84.20;;;;;;5097771;28;20085;-88
2021/07/05 02:30:45;;;;;;;4.72;4.25;;;24.50;84.10;;;;;;5115454;28;20055;-87
2021/07/05 02:33:11;;;;;;;4.13;3.78;;;24.50;84.00;;;;;;5097763;28;20059;-88
2021/07/05 02:35:37;;;;;;;4.72;4.22;;;24.60;83.80;;;;;;5097465;28;20035;-88
2021/07/05 02:38:08;;;;;;;5.68;4.30;;;24.60;84.00;;;;;;5097376;28;20114;-87
2021/07/05 02:40:37;;;;;;;8.13;4.97;;;24.60;84.00;;;;;;5115526;28;20051;-87
2021/07/05 02:43:04;;;;;;;6.13;3.88;;;24.70;83.90;;;;;;5098233;28;20458;-87
2021/07/05 02:45:32;;;;;;;6.05;4.57;;;24.70;83.70;;;;;;5099518;28;20172;-87
2021/07/05 02:48:02;;;;;;;4.95;4.45;;;24.80;83.50;;;;;;5100916;28;20518;-88
2021/07/05 02:50:28;;;;;;;5.30;4.80;;;24.80;83.40;;;;;;5118578;28;20020;-88
2021/07/05 02:52:55;;;;;;;4.47;4.07;;;24.90;83.30;;;;;;5118675;28;20494;-86
2021/07/05 02:55:22;;;;;;;5.25;4.50;;;25.00;83.00;;;;;;5099794;28;20093;-87
2021/07/05 02:57:49;;;;;;;5.25;4.50;;;24.90;82.90;;;;;;5098200;28;20050;-87
2021/07/05 03:00:20;;;;;;;5.53;4.05;;;25.00;82.90;;;;;;5098832;28;20048;-87
2021/07/05 03:02:47;;;;;;;4.70;4.18;;;25.00;82.80;;;;;;5116554;28;20075;-87
2021/07/05 03:05:15;;;;;;;4.57;4.18;;;25.10;82.50;;;;;;5121823;28;20019;-88
2021/07/05 03:07:41;;;;;;;4.97;4.43;;;25.00;82.40;;;;;;5112311;28;20088;-87
2021/07/05 03:10:09;;;;;;;4.53;4.03;;;25.00;82.40;;;;;;5128995;28;20043;-87
2021/07/05 03:12:35;;;;;;;4.45;4.03;;;25.00;82.40;;;;;;5100694;28;20036;-87
2021/07/05 03:15:02;;;;;;;5.18;4.68;;;25.00;82.40;;;;;;5106202;28;20142;-87
2021/07/05 03:17:28;;;;;;;4.95;4.55;;;25.00;82.40;;;;;;5101704;28;20055;-87
2021/07/05 03:19:54;;;;;;;5.28;4.35;;;24.90;82.40;;;;;;5120319;28;20028;-87
2021/07/05 03:22:20;;;;;;;5.03;4.53;;;24.90;82.50;;;;;;5115824;28;20051;-87
2021/07/05 03:24:46;;;;;;;5.15;4.65;;;24.90;82.70;;;;;;5115520;28;20055;-87
2021/07/05 03:27:12;;;;;;;5.32;4.72;;;24.90;82.50;;;;;;5097219;28;20027;-87
2021/07/05 03:29:38;;;;;;;5.72;5.13;;;24.90;82.60;;;;;;5098696;28;20023;-87
2021/07/05 03:32:13;;;;;;;4.93;4.47;;;25.00;82.50;;;;;;5099272;28;20031;-89
2021/07/05 03:34:39;;;;;;;5.50;5.00;;;25.00;82.40;;;;;;5116336;28;20020;-89
2021/07/05 03:37:05;;;;;;;5.15;4.65;;;24.90;82.30;;;;;;5096894;28;20032;-88
2021/07/05 03:39:30;;;;;;;6.80;4.80;;;24.90;82.60;;;;;;5097227;28;20466;-89
2021/07/05 03:41:56;;;;;;;8.05;5.55;;;24.90;82.40;;;;;;5097417;28;20114;-88
2021/07/05 03:44:22;;;;;;;6.40;5.80;;;24.90;82.40;;;;;;5115095;28;20103;-88
2021/07/05 03:46:48;;;;;;;5.63;5.03;;;24.80;82.30;;;;;;5097636;28;20484;-88
2021/07/05 03:49:13;;;;;;;7.70;5.25;;;24.80;82.70;;;;;;5115262;28;20031;-88
2021/07/05 03:51:39;;;;;;;5.90;5.13;;;24.80;82.80;;;;;;5096792;28;20119;-88
2021/07/05 03:54:05;;;;;;;5.68;4.90;;;24.90;83.00;;;;;;5115433;28;20458;-88
2021/07/05 03:56:31;;;;;;;6.18;5.57;;;24.90;82.90;;;;;;5097857;28;20027;-88
2021/07/05 03:58:57;;;;;;;6.97;6.22;;;24.80;82.90;;;;;;5115411;28;20023;-88
2021/07/05 04:01:22;;;;;;;7.63;6.85;;;24.90;82.90;;;;;;5100480;28;20050;-88
2021/07/05 04:03:48;;;;;;;6.45;5.50;;;24.80;82.90;;;;;;5101028;28;20047;-88
2021/07/05 04:06:14;;;;;;;9.80;6.15;;;24.70;83.00;;;;;;5102004;28;20126;-88
2021/07/05 04:08:40;;;;;;;7.47;6.78;;;24.70;83.10;;;;;;5100864;28;20031;-88
2021/07/05 04:11:06;;;;;;;8.35;6.43;;;24.70;83.10;;;;;;5119542;28;20073;-88
2021/07/05 04:13:35;;;;;;;6.10;5.53;;;24.60;83.20;;;;;;5100033;28;20027;-88
2021/07/05 04:16:00;;;;;;;8.35;7.20;;;24.70;83.40;;;;;;5101128;28;20030;-88
2021/07/05 04:18:27;;;;;;;8.38;7.57;;;24.80;83.40;;;;;;5101403;28;20047;-88
2021/07/05 04:20:53;;;;;;;9.60;7.40;;;24.80;83.10;;;;;;5119233;28;20093;-88
2021/07/05 04:23:24;;;;;;;8.15;7.35;;;24.80;83.10;;;;;;5101887;28;20118;-88
2021/07/05 04:25:52;;;;;;;6.93;6.32;;;24.70;83.20;;;;;;5101576;28;20072;-88
2021/07/05 04:28:18;;;;;;;7.93;7.22;;;24.80;83.50;;;;;;5101500;28;20020;-88
2021/07/05 04:30:44;;;;;;;7.97;7.05;;;24.90;83.40;;;;;;5101274;28;20003;-88
2021/07/05 04:33:13;;;;;;;10.00;8.07;;;25.00;82.80;;;;;;5100880;28;20040;-88
2021/07/05 04:35:39;;;;;;;9.00;8.18;;;25.00;82.40;;;;;;5100428;28;20023;-88
2021/07/05 04:38:05;;;;;;;7.57;6.80;;;25.10;82.30;;;;;;5099948;28;20027;-88
2021/07/05 04:40:37;;;;;;;8.13;7.40;;;25.10;82.10;;;;;;5100335;28;20134;-88
2021/07/05 04:43:04;;;;;;;9.45;8.20;;;25.10;82.10;;;;;;5118419;28;20031;-88
2021/07/05 04:45:32;;;;;;;9.73;7.57;;;25.20;82.20;;;;;;5119450;28;20515;-88
2021/07/05 04:48:01;;;;;;;7.10;6.40;;;25.40;82.00;;;;;;5099762;28;20101;-89
2021/07/05 04:50:27;;;;;;;8.43;7.60;;;25.50;81.30;;;;;;5099702;28;20084;-89
2021/07/05 04:52:53;;;;;;;7.20;6.38;;;25.60;80.80;;;;;;5100674;28;20089;-88
2021/07/05 04:55:20;;;;;;;8.55;7.75;;;25.70;80.50;;;;;;5118894;28;20469;-88
2021/07/05 04:57:48;;;;;;;7.88;6.95;;;25.70;79.80;;;;;;5118606;28;20442;-88
2021/07/05 05:00:23;;;;;;;8.77;7.90;;;25.80;79.80;;;;;;5117981;28;20122;-88
2021/07/05 05:02:49;;;;;;;9.00;8.15;;;25.90;79.30;;;;;;5118489;28;20035;-88
2021/07/05 05:05:14;;;;;;;9.27;8.07;;;25.90;79.10;;;;;;5102707;28;20050;-89
2021/07/05 05:07:40;;;;;;;8.50;7.70;;;25.80;79.30;;;;;;5106920;28;20100;-88
2021/07/05 05:10:09;;;;;;;8.75;7.95;;;25.80;79.40;;;;;;5105855;28;20359;-89
2021/07/05 05:12:35;;;;;;;8.43;7.63;;;25.70;79.40;;;;;;5125027;28;20064;-88
2021/07/05 05:15:04;;;;;;;8.93;8.05;;;25.70;79.60;;;;;;5105768;28;20023;-89
2021/07/05 05:17:29;;;;;;;10.60;9.60;;;25.50;79.80;;;;;;5118499;28;20523;-88
2021/07/05 05:19:55;;;;;;;9.80;8.93;;;25.50;80.00;;;;;;5099117;28;20028;-89
2021/07/05 05:22:21;;;;;;;9.43;8.52;;;25.50;81.00;;;;;;5113560;28;20046;-89
2021/07/05 05:24:47;;;;;;;9.05;8.25;;;25.40;80.50;;;;;;5104966;27;20489;-89
2021/07/05 05:27:12;;;;;;;9.15;8.20;;;25.50;80.70;;;;;;5100255;28;20023;-88
2021/07/05 05:29:39;;;;;;;9.60;8.65;;;25.50;80.40;;;;;;5088306;28;20428;-88
2021/07/05 05:32:05;;;;;;;10.30;9.20;;;25.50;80.20;;;;;;5097244;28;20040;-89
2021/07/05 05:34:31;;;;;;;10.70;9.70;;;25.50;80.30;;;;;;5096844;28;20119;-88
2021/07/05 05:36:57;;;;;;;10.60;9.57;;;25.50;80.20;;;;;;5079532;28;20184;-88
2021/07/05 05:39:22;;;;;;;10.38;9.48;;;25.50;80.30;;;;;;5080011;28;20028;-89
2021/07/05 05:41:48;;;;;;;9.75;8.85;;;25.40;80.60;;;;;;5080113;28;20024;-89
2021/07/05 05:44:17;;;;;;;9.02;7.88;;;25.50;80.90;;;;;;5081093;28;20058;-89
2021/07/05 05:47:10;;;;;;;9.88;8.00;;;25.40;81.20;;;;;;5080688;28;20039;-89
2021/07/05 05:49:35;;;;;;;10.68;8.55;;;25.60;81.00;;;;;;5094602;28;20032;-89
2021/07/05 05:52:01;;;;;;;9.40;8.50;;;25.70;80.90;;;;;;5099006;28;20066;-90
2021/07/05 05:54:27;;;;;;;9.70;8.48;;;25.70;80.70;;;;;;5118775;28;20098;-89
2021/07/05 05:56:53;;;;;;;9.63;8.60;;;25.80;80.40;;;;;;5099745;28;20024;-89
2021/07/05 05:59:19;;;;;;;9.05;8.25;;;25.90;80.20;;;;;;5080543;28;20035;-89
2021/07/05 06:01:49;;;;;;;8.57;7.68;;;26.00;79.80;;;;;;5088877;28;20450;-89
2021/07/05 06:04:17;;;;;;;8.80;7.90;;;26.10;79.50;;;;;;5097032;28;20138;-89
2021/07/05 06:06:43;;;;;;;10.38;9.20;;;26.20;79.20;;;;;;5081064;28;20036;-89
2021/07/05 06:09:08;;;;;;;8.90;8.07;;;26.30;78.90;;;;;;5098536;28;20119;-89
2021/07/05 06:11:35;;;;;;;10.10;9.10;;;26.30;79.00;;;;;;5099355;28;20051;-89
2021/07/05 06:14:01;;;;;;;9.75;8.70;;;26.20;78.80;;;;;;5116566;28;20032;-89
2021/07/05 06:16:28;;;;;;;9.05;8.15;;;26.20;79.00;;;;;;5087722;28;20020;-89
2021/07/05 06:18:53;;;;;;;9.60;8.45;;;26.30;79.20;;;;;;5078186;28;20031;-90
2021/07/05 06:21:20;;;;;;;8.45;7.65;;;26.40;78.60;;;;;;5097278;28;20016;-90
2021/07/05 06:23:46;;;;;;;9.85;8.85;;;26.50;78.30;;;;;;5094415;28;20027;-89
2021/07/05 06:26:12;;;;;;;9.23;7.95;;;26.50;77.60;;;;;;5099654;28;20028;-89
2021/07/05 06:28:40;;;;;;;9.20;8.30;;;26.50;77.20;;;;;;5109719;28;20336;-89
2021/07/05 06:31:05;;;;;;;8.57;7.82;;;26.40;77.60;;;;;;5097324;28;20534;-90
2021/07/05 06:33:31;;;;;;;9.25;8.43;;;26.40;78.00;;;;;;5092510;28;20065;-89
2021/07/05 06:35:57;;;;;;;9.50;8.60;;;26.30;78.20;;;;;;5115861;28;20019;-89
2021/07/05 06:38:23;;;;;;;9.52;8.63;;;26.40;78.30;;;;;;5092347;28;20368;-88
2021/07/05 06:40:52;;;;;;;9.68;8.68;;;26.40;78.20;;;;;;5106448;27;20020;-90
2021/07/05 06:43:19;;;;;;;8.82;7.93;;;26.40;78.10;;;;;;5098196;28;20020;-89
2021/07/05 06:45:45;;;;;;;8.15;7.35;;;26.40;78.30;;;;;;5093414;28;20035;-91
2021/07/05 06:48:13;;;;;;;8.70;7.60;;;26.40;78.00;;;;;;5093763;28;20024;-91
2021/07/05 06:50:39;;;;;;;9.98;9.05;;;26.50;78.10;;;;;;5085261;28;20032;-90
2021/07/05 06:53:06;;;;;;;9.32;8.43;;;26.50;78.10;;;;;;5110637;28;20046;-90
2021/07/05 06:55:33;;;;;;;8.25;7.53;;;26.50;78.00;;;;;;5103835;28;20486;-89
2021/07/05 06:58:01;;;;;;;8.93;8.13;;;26.60;77.60;;;;;;5102161;28;20061;-92
2021/07/05 07:00:31;;;;;;;9.27;6.93;;;26.70;77.50;;;;;;5114200;28;20028;-90
2021/07/05 07:02:59;;;;;;;7.32;6.70;;;26.80;77.40;;;;;;5089699;28;20028;-91
2021/07/05 07:05:26;;;;;;;8.27;7.45;;;26.90;77.00;;;;;;5106881;28;20187;-89
2021/07/05 07:07:54;;;;;;;9.05;7.70;;;27.00;76.50;;;;;;5078044;28;20055;-91
2021/07/05 07:10:22;;;;;;;7.53;6.82;;;27.00;76.10;;;;;;5087408;28;20047;-90
2021/07/05 07:12:49;;;;;;;7.38;6.70;;;27.10;76.00;;;;;;5105468;28;20176;-91
2021/07/05 07:15:19;;;;;;;9.25;8.23;;;27.10;75.20;;;;;;5103735;28;20028;-91
2021/07/05 07:17:50;;;;;;;7.65;6.95;;;27.20;75.10;;;;;;5104471;28;20370;-90
2021/07/05 07:20:18;;;;;;;9.50;7.13;;;27.20;75.10;;;;;;5123857;28;20024;-92
2021/07/05 07:22:44;;;;;;;9.55;7.13;;;27.20;74.30;;;;;;5094642;28;20036;-91
2021/07/05 07:25:14;;;;;;;7.80;6.80;;;27.20;74.70;;;;;;5113804;28;20035;-91
2021/07/05 07:27:41;;;;;;;7.55;6.85;;;27.40;74.40;;;;;;5094991;28;20020;-91
2021/07/05 07:30:10;;;;;;;7.90;6.38;;;27.50;73.80;;;;;;5115648;28;20020;-91
2021/07/05 07:32:36;;;;;;;9.13;6.38;;;27.60;73.20;;;;;;5099054;28;20031;-90
2021/07/05 07:35:03;;;;;;;6.93;5.80;;;27.80;72.80;;;;;;5093442;28;20027;-90
2021/07/05 07:37:29;;;;;;;8.93;5.63;;;28.00;72.50;;;;;;5124181;27;20030;-91
2021/07/05 07:40:00;;;;;;;7.80;6.82;;;28.20;71.30;;;;;;5089906;28;20044;-91
2021/07/05 07:42:26;;;;;;;6.38;5.78;;;28.30;70.80;;;;;;5100162;28;20047;-89
2021/07/05 07:44:52;;;;;;;6.70;6.07;;;28.30;70.60;;;;;;5112988;28;20043;-90
2021/07/05 07:47:18;;;;;;;6.90;6.07;;;28.50;70.50;;;;;;5109133;28;20019;-90
2021/07/05 07:49:44;;;;;;;6.60;6.00;;;28.70;70.20;;;;;;5093400;28;20375;-91
2021/07/05 07:52:09;;;;;;;6.45;5.85;;;28.80;68.80;;;;;;5119102;28;20089;-89
2021/07/05 07:54:35;;;;;;;9.48;6.25;;;28.70;68.70;;;;;;5114718;28;20039;-90
2021/07/05 07:57:02;;;;;;;6.70;6.10;;;28.80;68.90;;;;;;5096923;28;20059;-89
2021/07/05 07:59:28;;;;;;;6.32;5.72;;;28.90;67.70;;;;;;5094906;28;20470;-90
2021/07/05 08:01:54;;;;;;;6.38;5.78;;;28.90;67.60;;;;;;5092991;28;20104;-89
2021/07/05 08:04:22;;;;;;;7.82;6.32;;;28.90;67.60;;;;;;5094755;28;20187;-89
2021/07/05 08:06:48;;;;;;;5.40;4.95;;;28.80;67.30;;;;;;5105281;27;20042;-91
2021/07/05 08:09:15;;;;;;;7.85;5.57;;;28.70;66.90;;;;;;5108182;28;20106;-91
2021/07/05 08:11:41;;;;;;;5.80;4.75;;;28.70;67.30;;;;;;5083695;28;20028;-90
2021/07/05 08:14:07;;;;;;;7.75;5.75;;;28.80;67.60;;;;;;5099336;28;20046;-90
2021/07/05 08:16:35;;;;;;;6.38;5.78;;;28.90;67.80;;;;;;5100136;28;20008;-91
2021/07/05 08:19:01;;;;;;;6.88;6.18;;;28.70;67.50;;;;;;5104562;28;20087;-89
2021/07/05 08:21:27;;;;;;;8.48;6.28;;;28.60;67.70;;;;;;5101936;28;20050;-91
2021/07/05 08:23:53;;;;;;;7.40;6.10;;;28.50;67.50;;;;;;5101920;28;20035;-88
2021/07/05 08:26:19;;;;;;;5.88;5.35;;;28.50;67.10;;;;;;5114089;28;20020;-89
2021/07/05 08:28:46;;;;;;;7.75;5.45;;;28.40;66.90;;;;;;5092985;28;20488;-90
2021/07/05 08:31:14;;;;;;;6.57;5.07;;;28.50;66.90;;;;;;5102401;28;20126;-91
2021/07/05 08:33:40;;;;;;;6.88;5.90;;;28.70;66.20;;;;;;5094552;28;20075;-91
2021/07/05 08:36:06;;;;;;;5.43;4.93;;;28.80;66.60;;;;;;5102528;27;20326;-91
2021/07/05 08:38:33;;;;;;;6.78;5.50;;;29.00;66.30;;;;;;5090621;28;20442;-90
2021/07/05 08:41:00;;;;;;;7.90;5.85;;;29.10;65.20;;;;;;5113267;28;20030;-91
2021/07/05 08:43:28;;;;;;;5.95;5.35;;;29.10;64.80;;;;;;5091886;28;20083;-91
2021/07/05 08:46:04;;;;;;;5.63;5.13;;;29.10;63.90;;;;;;5086095;28;20032;-91
2021/07/05 08:48:34;;;;;;;6.05;4.82;;;29.10;64.30;;;;;;5091662;28;20028;-89
2021/07/05 08:51:05;;;;;;;6.18;5.68;;;29.20;65.00;;;;;;5099688;28;20048;-91
2021/07/05 08:53:31;;;;;;;7.43;5.20;;;29.40;64.50;;;;;;5092284;28;20040;-90
2021/07/05 08:56:00;;;;;;;5.45;4.95;;;29.50;64.10;;;;;;5100481;28;20012;-92
2021/07/05 08:58:38;;;;;;;;;;;;;;;;;;;;;
2021/07/05 09:01:09;;;;;;;5.35;4.95;;;29.60;63.70;;;;;;5110696;28;20103;-91
2021/07/05 09:03:37;;;;;;;6.63;5.72;;;29.70;63.40;;;;;;5097451;28;20104;-91
2021/07/05 09:06:06;;;;;;;5.95;5.18;;;29.80;63.10;;;;;;5093138;28;20027;-90
2021/07/05 09:08:35;;;;;;;6.13;4.93;;;29.80;62.80;;;;;;5090792;28;20155;-90
2021/07/05 09:11:45;;;;;;;5.60;5.10;;;30.00;62.80;;;;;;5085887;28;20100;-92
2021/07/05 09:14:38;;;;;;;8.30;5.25;;;30.00;63.30;;;;;;5091454;28;20028;-91
2021/07/05 09:17:09;;;;;;;5.50;4.90;;;30.10;62.50;;;;;;5081569;27;20051;-89
2021/07/05 09:19:39;;;;;;;8.85;5.05;;;30.10;62.80;;;;;;5083809;28;20138;-90
2021/07/05 09:22:30;;;;;;;4.78;4.38;;;30.30;62.70;;;;;;5084954;28;20054;-91
2021/07/05 09:24:58;;;;;;;5.95;4.35;;;30.50;62.40;;;;;;5107089;28;20040;-91
2021/07/05 09:27:50;;;;;;;5.00;4.55;;;30.80;62.30;;;;;;5089196;28;20024;-90
2021/07/05 09:30:21;;;;;;;4.60;4.20;;;30.90;61.10;;;;;;5091685;28;20683;-91
2021/07/05 09:32:52;;;;;;;5.68;4.53;;;31.00;61.10;;;;;;5094161;28;20032;-92
2021/07/05 09:35:18;;;;;;;5.50;5.00;;;31.10;60.90;;;;;;5093113;28;20034;-92
2021/07/05 09:38:14;;;;;;;7.13;5.22;;;31.10;60.70;;;;;;5084078;28;20081;-92
2021/07/05 09:40:56;;;;;;;5.50;5.00;;;31.00;59.70;;;;;;5098738;28;20027;-91
2021/07/05 09:43:55;;;;;;;6.20;5.43;;;30.80;60.30;;;;;;5096443;28;20486;-92
2021/07/05 09:47:01;;;;;;;5.18;4.47;;;30.80;60.50;;;;;;5080250;28;20032;-93
2021/07/05 09:49:40;;;;;;;5.07;4.57;;;30.90;60.50;;;;;;5081401;28;20078;-91
2021/07/05 09:52:09;;;;;;;5.43;4.93;;;30.90;60.50;;;;;;5081383;28;20067;-92
2021/07/05 09:54:53;;;;;;;4.72;4.22;;;30.90;60.70;;;;;;5081206;28;20023;-93
2021/07/05 09:57:41;;;;;;;5.85;4.47;;;30.90;60.90;;;;;;5078543;28;20048;-92
2021/07/05 10:06:18;;;;;;;5.03;4.55;;;31.30;59.70;;;;;;5082554;28;20040;-92
2021/07/05 10:08:59;;;;;;;5.22;4.72;;;31.30;59.50;;;;;;5104088;28;20416;-91
2021/07/05 10:11:41;;;;;;;7.82;5.43;;;31.20;59.90;;;;;;5094276;28;20378;-92
2021/07/05 10:14:40;;;;;;;5.10;4.60;;;31.10;59.30;;;;;;5111426;28;20036;-93
2021/07/05 10:17:18;;;;;;;8.13;5.20;;;31.10;60.00;;;;;;5089545;28;21044;-92
2021/07/05 10:20:16;;;;;;;5.38;4.88;;;31.10;59.90;;;;;;5091853;28;20060;-93
2021/07/05 10:22:43;;;;;;;5.65;5.15;;;31.20;59.90;;;;;;5089792;28;20028;-93
2021/07/05 10:25:10;;;;;;;6.18;5.65;;;31.30;59.70;;;;;;5100883;28;20114;-92
2021/07/05 10:27:43;;;;;;;5.65;5.10;;;31.40;59.20;;;;;;5119328;28;20028;-92
2021/07/05 10:30:10;;;;;;;7.85;5.45;;;31.20;59.20;;;;;;5096290;28;20028;-93
2021/07/05 10:32:37;;;;;;;5.78;5.25;;;31.00;59.50;;;;;;5089352;28;20059;-92
2021/07/05 10:35:05;;;;;;;5.45;4.95;;;31.00;60.00;;;;;;5103232;28;20108;-94
2021/07/05 10:37:56;;;;;;;5.43;4.60;;;31.10;60.20;;;;;;5087175;28;20529;-92
2021/07/05 10:40:33;;;;;;;5.28;4.78;;;31.30;59.60;;;;;;5092790;28;20024;-92
2021/07/05 10:43:00;;;;;;;6.25;5.18;;;31.40;59.20;;;;;;5071375;28;20068;-91
2021/07/05 10:45:52;;;;;;;5.10;4.60;;;31.20;59.30;;;;;;5101707;27;20015;-92
2021/07/05 10:48:42;;;;;;;4.80;4.43;;;31.10;59.60;;;;;;5075247;28;20028;-91
2021/07/05 10:51:17;;;;;;;5.10;4.60;;;31.00;59.10;;;;;;5125668;27;20044;-91
2021/07/05 10:53:52;;;;;;;8.35;5.25;;;31.00;59.50;;;;;;5120277;27;20043;-91
2021/07/05 10:56:29;;;;;;;5.55;4.53;;;31.00;59.20;;;;;;5107774;28;20023;-92
2021/07/05 10:59:17;;;;;;;4.65;4.22;;;30.90;59.40;;;;;;5107406;28;20039;-91
2021/07/05 11:01:48;;;;;;;4.70;4.15;;;31.00;59.70;;;;;;5115051;28;20076;-91
2021/07/05 11:04:31;;;;;;;5.78;5.03;;;31.10;59.70;;;;;;5110762;28;20101;-91
2021/07/05 11:07:40;;;;;;;6.22;5.03;;;31.30;58.70;;;;;;5099362;28;20032;-91
2021/07/05 11:10:19;;;;;;;5.15;4.65;;;31.30;58.60;;;;;;5116791;27;20031;-92
2021/07/05 11:13:03;;;;;;;4.55;4.15;;;31.30;58.50;;;;;;5109003;27;20027;-92
2021/07/05 11:15:55;;;;;;;5.85;5.25;;;31.30;58.90;;;;;;5127870;27;20027;-90
2021/07/05 11:18:39;;;;;;;5.10;4.45;;;31.40;58.30;;;;;;5114734;28;20077;-91
2021/07/05 11:21:07;;;;;;;4.97;4.57;;;31.30;58.90;;;;;;5108086;27;20024;-92
2021/07/05 11:24:21;;;;;;;4.63;4.25;;;31.30;58.90;;;;;;5082749;27;20094;-92
2021/07/05 11:26:50;;;;;;;5.72;4.40;;;31.40;58.90;;;;;;5088103;28;20044;-93
2021/07/05 11:29:16;;;;;;;5.10;4.60;;;31.40;59.10;;;;;;5109079;28;20167;-92
2021/07/05 11:31:57;;;;;;;4.13;3.70;;;31.60;58.90;;;;;;5109487;28;20080;-91
2021/07/05 11:34:32;;;;;;;4.50;4.10;;;31.70;58.40;;;;;;5133757;27;20028;-93
2021/07/05 11:37:13;;;;;;;4.88;4.47;;;31.90;58.40;;;;;;5116431;28;20023;-90
2021/07/05 11:39:49;;;;;;;4.70;4.28;;;31.90;57.70;;;;;;5132371;27;20020;-92
2021/07/05 11:42:42;;;;;;;5.22;4.72;;;31.90;57.40;;;;;;5132101;27;20023;-92
2021/07/05 11:45:10;;;;;;;5.18;4.65;;;31.80;57.30;;;;;;5112960;27;20385;-90
2021/07/05 11:47:41;;;;;;;4.95;4.30;;;31.70;57.70;;;;;;5105081;27;20101;-90
2021/07/05 11:50:24;;;;;;;4.65;4.25;;;31.60;58.10;;;;;;5106588;28;20471;-90
2021/07/05 11:52:59;;;;;;;5.03;4.53;;;31.50;58.10;;;;;;5106064;28;20035;-91
2021/07/05 11:55:27;;;;;;;4.30;3.90;;;31.50;58.00;;;;;;5101020;28;20023;-90
2021/07/05 11:57:56;;;;;;;4.95;4.10;;;31.50;58.10;;;;;;5108255;27;20035;-91
2021/07/05 12:00:28;;;;;;;4.25;3.85;;;31.50;58.00;;;;;;5107010;27;20019;-87
2021/07/05 12:03:09;;;;;;;4.33;3.93;;;31.50;58.50;;;;;;5101837;27;20036;-87
2021/07/05 12:05:36;;;;;;;4.10;3.70;;;31.70;58.10;;;;;;5100702;28;20349;-87
2021/07/05 12:08:09;;;;;;;4.78;4.38;;;31.80;58.20;;;;;;5106143;28;20042;-90
2021/07/05 12:10:41;;;;;;;4.38;3.97;;;32.00;57.60;;;;;;5113007;27;20370;-91
2021/07/05 12:13:13;;;;;;;5.57;4.35;;;32.00;57.40;;;;;;5105639;28;20031;-90
2021/07/05 12:15:40;;;;;;;7.63;4.30;;;32.00;57.10;;;;;;5119438;28;20474;-90
2021/07/05 12:18:05;;;;;;;4.50;4.10;;;32.00;57.60;;;;;;5115610;27;20084;-89
2021/07/05 12:20:31;;;;;;;4.95;4.47;;;32.00;57.90;;;;;;5100986;27;20116;-89
2021/07/05 12:23:11;;;;;;;5.32;4.82;;;32.10;57.80;;;;;;5129774;27;20031;-88
2021/07/05 12:25:38;;;;;;;4.82;4.43;;;31.90;57.40;;;;;;5084965;28;20028;-89
2021/07/05 12:28:21;;;;;;;5.28;4.78;;;31.80;58.20;;;;;;5109999;27;20026;-87
2021/07/05 12:30:48;;;;;;;7.15;5.55;;;31.90;58.30;;;;;;5104135;27;20023;-89
2021/07/05 12:33:16;;;;;;;5.80;4.82;;;31.90;58.50;;;;;;5100394;27;20509;-88
2021/07/05 12:35:42;;;;;;;7.53;5.00;;;32.10;58.50;;;;;;5118778;27;20106;-88
2021/07/05 12:38:12;;;;;;;5.88;4.55;;;32.10;58.20;;;;;;5106457;27;20123;-87
2021/07/05 12:40:40;;;;;;;5.38;4.88;;;32.00;57.80;;;;;;5112181;27;20045;-89
2021/07/05 12:43:07;;;;;;;4.22;3.83;;;32.00;58.30;;;;;;5102972;28;20485;-89
2021/07/05 12:45:44;;;;;;;5.40;4.70;;;32.00;57.60;;;;;;5104761;27;20036;-88
2021/07/05 12:48:16;;;;;;;5.45;4.85;;;32.00;56.90;;;;;;5096297;28;20111;-90
2021/07/05 12:50:55;;;;;;;5.28;4.78;;;31.80;57.70;;;;;;5079053;28;20416;-91
2021/07/05 12:53:35;;;;;;;6.55;5.43;;;31.50;58.40;;;;;;5078145;28;20074;-90
2021/07/05 12:56:13;;;;;;;6.25;5.20;;;31.20;58.00;;;;;;5088806;28;20019;-91
2021/07/05 12:59:14;;;;;;;5.72;4.57;;;31.10;58.90;;;;;;5092331;28;20049;-91
2021/07/05 13:01:41;;;;;;;7.32;6.20;;;31.30;59.00;;;;;;5099610;28;20099;-90
2021/07/05 13:04:08;;;;;;;5.25;4.82;;;31.50;59.70;;;;;;5115768;28;20082;-89
2021/07/05 13:07:00;;;;;;;6.78;6.07;;;32.10;58.80;;;;;;5124334;27;20024;-92
2021/07/05 13:10:22;;;;;;;4.80;4.40;;;32.60;57.00;;;;;;5083768;28;20050;-91